METAR v bližini

 

LIPQ - Ronchi Legionari, Italy
Oddaljenost od postaje: JZ 35km
Podatki zajeti: 12/12/2018 15:50
Jasno
Jasno
 Veter iz smeri ZSZ
Veter: ZSZ 6 km/h
Temperatura: 9°C
Temp. rosišča: -6°C
Vlažnost: 34%
Tlak: 1018 hPa
Stanje: Jasno
Vidljivost: večja od 10 km
2018/12/12 14:50 LIPQ 121450Z 30003KT CAVOK 09/M06 Q1018
LIVT - Trieste, Italy
Oddaljenost od postaje: J 49km
Podatki zajeti: 12/12/2018 15:55
Jasno
Jasno
 Veter iz smeri calm
Veter: Tišina
Temperatura: 9°C
Temp. rosišča: -5°C
Vlažnost: 37%
Tlak: 1018 hPa
Stanje: Jasno
Vidljivost: večja od 10 km
2018/12/12 14:55 LIVT 121455Z 00000KT CAVOK 09/M05 Q1018 RMK SKC QUK 0 QUL 0 VIS MAR 20 KM VIS MIN 9999
 
LIVO - Tarvisio, Italy
Oddaljenost od postaje: SSZ 49km
Podatki zajeti: 12/12/2018 15:55
Jasno
Jasno
 Veter iz smeri calm
Veter: Tišina
Temperatura: -1°C
Temp. rosišča: -6°C
Vlažnost: 69%
Tlak: 1016 hPa
Stanje: Jasno
Vidljivost: večja od 10 km
2018/12/12 14:55 LIVO 121455Z 00000KT CAVOK M01/M06 Q1016 RMK SKC VIS MIN 9999
LIPI - Rivolto (it-Afb), Italy
Oddaljenost od postaje: ZJZ 57km
Podatki zajeti: 12/12/2018 15:55
Jasno
Jasno
 Veter iz smeri spremenljiv
Veter: spremenljiv 0 km/h
Temperatura: 7°C
Temp. rosišča: -5°C
Vlažnost: 42%
Tlak: 1018 hPa
Stanje: Jasno
Vidljivost: večja od 10 km
2018/12/12 14:55 LIPI 121455Z /////KT CAVOK 07/M05 Q1018 RMK SKC VIS MIN 9999 WIND THR06 28002KT WIND THR24 30001KT BLU
 
LJLJ - Ljubljana/Brnik, Slovenia
Oddaljenost od postaje: VSV 59km
Podatki zajeti: 12/12/2018 16:00
Rahlo oblačno
Rahlo oblačno
 Veter iz smeri spremenljiv
Veter: spremenljiv 2 km/h
Temperatura: -1°C
Temp. rosišča: -3°C
Vlažnost: 86%
Tlak: 1018 hPa
Oblačnost: Rahlo oblačno
Vidljivost: 10 km
Podrobnosti o oblakih: Rahlo oblačno 1829 m
2018/12/12 15:00 LJLJ 121500Z VRB01KT 9999 FEW060 M01/M03 Q1018 NOSIG
LJPZ - Portoroz, Slovenia
Oddaljenost od postaje: J 68km
Podatki zajeti: 12/12/2018 16:00
Jasno
Jasno
 Veter iz smeri Z
Veter: Z 4 km/h
Temperatura: 7°C
Temp. rosišča: -2°C
Vlažnost: 53%
Tlak: 1018 hPa
Stanje: Jasno
Vidljivost: večja od 10 km
2018/12/12 15:00 LJPZ 121500Z 26002KT CAVOK 07/M02 Q1018
 
LOWK - Klagenfurt(Civ/M, Austria
Oddaljenost od postaje: SV 78km
Podatki zajeti: 12/12/2018 15:50
Rahlo oblačno
Rahlo oblačno
 Veter iz smeri SV
Veter: SV 11 km/h
Temperatura: 5°C
Občutek mraza zaradi vetra: 2°C
Temp. rosišča: -6°C
Vlažnost: 45%
Tlak: 1018 hPa
Oblačnost: Rahlo oblačno
Vidljivost: 10 km
Podrobnosti o oblakih: Rahlo oblačno 1829 m
2018/12/12 14:50 LOWK 121450Z 04006KT 9999 FEW060 05/M06 Q1018 NOSIG
LIYW - Aviano (usaf), Italy
Oddaljenost od postaje: Z 86km
Podatki zajeti: 20/10/2015 15:58
Ni posodobljen
Jasno
Jasno
 Veter iz smeri JJZ
Veter: JJZ 6 km/h
Temperatura: 17°C
Temp. rosišča: 3°C
Vlažnost: 39%
Tlak: 1016.3 hPa
Oblačnost: Jasno
Vidljivost: 10 km
2015/10/20 13:58 LIYW 201358Z AUTO 21003KT 9999 CLR 17/03 A3001 RMK AO2 SLP167 T01660029
 
LIPA - Aviano (it/Us-Af, Italy
Oddaljenost od postaje: Z 89km
Podatki zajeti: 12/12/2018 15:55
Jasno
Jasno
 Veter iz smeri J
Veter: J 4 km/h
Temperatura: 8°C
Temp. rosišča: -6°C
Vlažnost: 37%
Tlak: 1018 hPa
Stanje: Jasno
Vidljivost: večja od 10 km
2018/12/12 14:55 LIPA 121455Z 18002KT CAVOK 08/M06 Q1018 RMK SKC VIS MIN 9999 WIND THR05 14002KT WIND THR23 15001KT A3007 BLU
LDRI - Rijeka/Omisalj, Croatia
Oddaljenost od postaje: JV 115km
Podatki zajeti: 12/12/2018 16:00
Rahlo oblačno
Rahlo oblačno
 Veter iz smeri JV
Veter: JV 9 km/h
Temperatura: 8°C
Občutek mraza zaradi vetra: 6°C
Temp. rosišča: 1°C
Vlažnost: 62%
Tlak: 1019 hPa
Oblačnost: Rahlo oblačno
Vidljivost: 10 km
Podrobnosti o oblakih: Rahlo oblačno 1524 m
2018/12/12 15:00 LDRI 121500Z 14005KT 9999 FEW050 08/01 Q1019
 
LIPZ - Venezia/Tessera, Italy
Oddaljenost od postaje: ZJZ 127km
Podatki zajeti: 12/12/2018 15:50
Jasno
Jasno
 Veter iz smeri JV
Veter: JV 7 km/h
Temperatura: 7°C
Občutek mraza zaradi vetra: 6°C
Temp. rosišča: 0°C
Vlažnost: 61%
Tlak: 1019 hPa
Stanje: Jasno
Vidljivost: večja od 10 km
2018/12/12 14:50 LIPZ 121450Z 14004KT CAVOK 07/M00 Q1019 NOSIG
LDPL - Pula, Croatia
Oddaljenost od postaje: J 133km
Podatki zajeti: 12/12/2018 16:00
Rahlo oblačno
Rahlo oblačno
 Veter iz smeri VJV
Veter: VJV 11 km/h
Temperatura: 8°C
Občutek mraza zaradi vetra: 6°C
Temp. rosišča: 2°C
Vlažnost: 66%
Tlak: 1018 hPa
Oblačnost: Rahlo oblačno
Vidljivost: 10 km
Podrobnosti o oblakih: Rahlo oblačno 762 m
2018/12/12 15:00 LDPL 121500Z 11006KT 080V140 9999 FEW025 08/02 Q1018 NOSIG
 
LIPS - Istrana (it-Afb), Italy
Oddaljenost od postaje: ZJZ 136km
Podatki zajeti: 12/12/2018 15:55
Jasno
Jasno
 Veter iz smeri JZ
Veter: JZ 4 km/h
Temperatura: 10°C
Temp. rosišča: -2°C
Vlažnost: 43%
Tlak: 1018 hPa
Stanje: Jasno
Vidljivost: večja od 10 km
2018/12/12 14:55 LIPS 121455Z 23002KT CAVOK 10/M02 Q1018 RMK SKC VIS MIN 9999 WIND THR26 00000KT WIND THR08 26001KT BLU
LIVD - Dobbiaco, Italy
Oddaljenost od postaje: ZSZ 137km
Podatki zajeti: 12/12/2018 14:55
Ni posodobljen
Jasno
Jasno
 Veter iz smeri spremenljiv
Veter: spremenljiv 0 km/h
Temperatura: -4°C
Temp. rosišča: -9°C
Vlažnost: 69%
Tlak: 1017 hPa
Stanje: Jasno
Vidljivost: večja od 10 km
2018/12/12 13:55 LIVD 121355Z /////KT CAVOK M04/M09 Q1017 RMK SKC VIS MIN 9999
 
LJCE - Cerklje, Slovenia
Oddaljenost od postaje: V 139km
Podatki zajeti: 12/12/2018 16:00
Delno oblačno
Delno oblačno
 Veter iz smeri J
Veter: J 4 km/h
Temperatura: 5°C
Temp. rosišča: -4°C
Vlažnost: 53%
Tlak: 1019 hPa
Oblačnost: Delno oblačno
Vidljivost: 10 km
2018/12/12 15:00 LJCE 121500Z AUTO 17002KT 9999 NSC 05/M04 Q1019
LOXZ - Zeltweg (mil), Austria
Oddaljenost od postaje: SSV 147km
Podatki zajeti: 12/12/2018 15:50
Pretežno oblačno
Pretežno oblačno
 Veter iz smeri V
Veter: V 7 km/h
Temperatura: 1°C
Občutek mraza zaradi vetra: -2°C
Temp. rosišča: -3°C
Vlažnost: 75%
Tlak: 1018 hPa
Oblačnost: Pretežno oblačno
Podrobnosti o oblakih: Rahlo oblačno 1219 m
Pretežno oblačno 3048 m
2018/12/12 14:50 LOXZ 121450Z 09004KT 30KM FEW040SC BKN100AC 01/M03 Q1018 NOSIG